Time;durP1;ratioP1;P1;durP2;ratioP2;P2;SDS_P1;SDS_P2;PMS_P1;PMS_P2;Temp;Humidity;BMP_temperature;BMP_pressure;BME280_temperature;BME280_humidity;BME280_pressure;Samples;Min_cycle;Max_cycle;Signal;HPM_P1;HPM_P2
2021/08/09 00:00:59;;;;;;;;;;;;;;;-144.99;83.45;52441.97;4981981;28;20006;-59
2021/08/09 00:03:25;;;;;;;;;;;;;;;-144.99;83.30;52458.28;4981728;28;20432;-58
2021/08/09 00:05:52;;;;;;;;;;;;;;;-144.99;83.54;52444.03;4988636;28;20092;-59
2021/08/09 00:08:19;;;;;;;;;;;;;;;-144.99;83.85;52435.88;4981036;28;20264;-59
2021/08/09 00:10:47;;;;;;;;;;;;;;;-144.99;83.70;52439.94;4983082;28;20100;-59
2021/08/09 00:13:13;;;;;;;;;;;;;;;-144.99;83.76;52399.19;4983607;28;19985;-59
2021/08/09 00:15:39;;;;;;;;;;;;;;;-144.99;84.40;52417.53;4983204;28;20073;-59
2021/08/09 00:18:06;;;;;;;;;;;;;;;-144.99;84.31;52444.03;4982483;28;20442;-59
2021/08/09 00:20:32;;;;;;;;;;;;;;;-144.99;84.40;52456.25;4980047;28;19978;-59
2021/08/09 00:22:58;;;;;;;;;;;;;;;-144.99;84.48;52427.72;4984235;28;19982;-59
2021/08/09 00:25:25;;;;;;;;;;;;;;;-144.99;84.73;52423.63;4983151;28;19985;-59
2021/08/09 00:27:52;;;;;;;;;;;;;;;-144.99;84.76;52456.25;4992137;28;19994;-59
2021/08/09 00:30:19;;;;;;;;;;;;;;;-144.99;84.89;52452.16;4981694;28;20005;-59
2021/08/09 00:32:45;;;;;;;;;;;;;;;-144.99;85.26;52435.88;4982002;28;20416;-59
2021/08/09 00:35:12;;;;;;;;;;;;;;;-144.99;85.24;52415.47;4981696;28;19978;-60
2021/08/09 00:37:39;;;;;;;;;;;;;;;-144.99;85.31;52421.59;4979603;28;20573;-60
2021/08/09 00:40:06;;;;;;;;;;;;;;;-144.99;85.65;52435.88;4987585;28;19998;-58
2021/08/09 00:42:32;;;;;;;;;;;;;;;-144.99;85.78;52435.88;4988151;28;20066;-58
2021/08/09 00:45:00;;;;;;;;;;;;;;;-144.99;85.88;52444.03;4988349;28;19972;-59
2021/08/09 00:47:26;;;;;;;;;;;;;;;-144.99;86.02;52437.91;4987464;28;20009;-61
2021/08/09 00:49:52;;;;;;;;;;;;;;;-144.99;86.16;52413.44;4988345;28;20001;-60
2021/08/09 00:52:19;;;;;;;;;;;;;;;-144.99;85.95;52444.03;4987874;28;20008;-60
2021/08/09 00:54:45;;;;;;;;;;;;;;;-144.99;85.98;52439.94;4990510;28;19986;-60
2021/08/09 00:57:11;;;;;;;;;;;;;;;-144.99;86.21;52448.09;4648461;28;9999800;-60
2021/08/09 00:59:38;;;;;;;;;;;;;;;-144.99;86.13;52399.19;4988317;28;20005;-60
2021/08/09 01:02:06;;;;;;;;;;;;;;;-144.99;85.91;52427.72;4987661;28;20555;-59
2021/08/09 01:04:32;;;;;;;;;;;;;;;-144.99;85.79;52427.72;4991053;28;20062;-63
2021/08/09 01:06:58;;;;;;;;;;;;;;;-144.99;85.93;52391.03;4992614;28;20005;-63
2021/08/09 01:09:27;;;;;;;;;;;;;;;-144.99;86.19;52460.31;4997711;28;20005;-59
2021/08/09 01:11:56;;;;;;;;;;;;;;;-144.99;85.87;52456.25;4990316;28;19993;-59
2021/08/09 01:14:27;;;;;;;;;;;;;;;-144.99;85.79;52431.78;4990563;28;19982;-59
2021/08/09 01:19:40;;;;;;;;;;;;;;;-144.99;85.61;52399.19;4991422;28;20002;-71
2021/08/09 01:22:10;;;;;;;;;;;;;;;-144.99;85.54;52403.25;4980038;28;20425;-71
2021/08/09 01:24:40;;;;;;;;;;;;;;;-144.99;85.37;52448.09;4986757;28;20350;-70
2021/08/09 01:27:10;;;;;;;;;;;;;;;-144.99;85.49;52391.03;4991858;28;19998;-69
2021/08/09 01:29:41;;;;;;;;;;;;;;;-144.99;85.49;52423.63;4991432;28;20502;-70
2021/08/09 01:32:08;;;;;;;;;;;;;;;-144.99;85.48;52439.94;4999117;28;19982;-66
2021/08/09 01:34:36;;;;;;;;;;;;;;;-144.99;85.64;52427.72;4992063;28;19994;-70
2021/08/09 01:37:02;;;;;;;;;;;;;;;-144.99;85.52;52425.66;4991437;28;20045;-70
2021/08/09 01:39:31;;;;;;;;;;;;;;;-144.99;85.58;52444.03;4990830;28;20497;-70
2021/08/09 01:41:57;;;;;;;;;;;;;;;-144.99;85.82;52435.88;4991194;28;19982;-69
2021/08/09 01:44:24;;;;;;;;;;;;;;;-144.99;85.79;52391.03;4991031;28;19982;-70
2021/08/09 01:46:52;;;;;;;;;;;;;;;-144.99;85.61;52427.72;4991267;28;19986;-69
2021/08/09 01:49:20;;;;;;;;;;;;;;;-144.99;85.82;52452.16;4991272;28;20009;-70
2021/08/09 01:51:46;;;;;;;;;;;;;;;-144.99;85.92;52433.81;4991232;28;19986;-71
2021/08/09 01:54:13;;;;;;;;;;;;;;;-144.99;86.04;52419.56;4990904;28;19982;-69
2021/08/09 01:56:40;;;;;;;;;;;;;;;-144.99;86.03;52407.31;4995201;28;20491;-69
2021/08/09 01:59:07;;;;;;;;;;;;;;;-144.99;86.07;52399.19;4978372;28;19998;-69
2021/08/09 02:01:33;;;;;;;;;;;;;;;-144.99;85.89;52423.63;4993410;28;19981;-67
2021/08/09 02:04:01;;;;;;;;;;;;;;;-144.99;85.80;52382.88;5002251;28;19978;-67
2021/08/09 02:06:27;;;;;;;;;;;;;;;-144.99;85.86;52444.03;4990054;28;19967;-66
2021/08/09 02:08:54;;;;;;;;;;;;;;;-144.99;85.76;52417.53;5000523;28;19998;-66
2021/08/09 02:11:23;;;;;;;;;;;;;;;-144.99;85.62;52419.56;4991214;28;19981;-67
2021/08/09 02:13:51;;;;;;;;;;;;;;;-144.99;85.98;52415.47;4991296;28;19990;-67
2021/08/09 02:16:20;;;;;;;;;;;;;;;-144.99;86.01;52399.19;4991183;28;19982;-69
2021/08/09 02:18:47;;;;;;;;;;;;;;;-144.99;86.00;52435.88;5003120;28;19998;-68
2021/08/09 02:21:19;;;;;;;;;;;;;;;-144.99;85.95;52403.25;4990264;28;20455;-69
2021/08/09 02:23:47;;;;;;;;;;;;;;;-144.99;85.69;52415.47;4990933;28;20086;-69
2021/08/09 02:26:13;;;;;;;;;;;;;;;-144.99;85.71;52399.19;4990854;28;19989;-70
2021/08/09 02:28:41;;;;;;;;;;;;;;;-144.99;85.61;52362.50;4990193;28;20013;-70
2021/08/09 02:31:10;;;;;;;;;;;;;;;-144.99;85.51;52407.31;4998767;28;19978;-69
2021/08/09 02:33:37;;;;;;;;;;;;;;;-144.99;85.59;52399.19;4999170;28;20001;-70
2021/08/09 02:36:04;;;;;;;;;;;;;;;-144.99;85.49;52407.31;4990849;28;19982;-69
2021/08/09 02:38:33;;;;;;;;;;;;;;;-144.99;85.70;52399.19;4991250;28;20050;-69
2021/08/09 02:41:00;;;;;;;;;;;;;;;-144.99;85.86;52407.31;4998309;28;19964;-69
2021/08/09 02:43:27;;;;;;;;;;;;;;;-144.99;85.75;52395.09;4998918;28;19982;-69
2021/08/09 02:45:54;;;;;;;;;;;;;;;-144.99;86.23;52403.25;4998544;28;20357;-71
2021/08/09 02:48:21;;;;;;;;;;;;;;;-144.99;86.46;52395.09;4996511;28;19998;-71
2021/08/09 02:50:48;;;;;;;;;;;;;;;-144.99;86.79;52417.53;4998094;28;19982;-71
2021/08/09 02:53:16;;;;;;;;;;;;;;;-144.99;86.69;52431.78;4996874;28;20265;-71
2021/08/09 02:55:45;;;;;;;;;;;;;;;-144.99;86.90;52415.47;4994681;28;19981;-72
2021/08/09 02:58:11;;;;;;;;;;;;;;;-144.99;87.09;52415.47;4995512;28;20084;-69
2021/08/09 03:00:38;;;;;;;;;;;;;;;-144.99;87.17;52429.75;4993448;28;19990;-67
2021/08/09 03:03:04;;;;;;;;;;;;;;;-144.99;87.84;52423.63;5003777;28;19978;-66
2021/08/09 03:05:31;;;;;;;;;;;;;;;-144.99;87.70;52407.31;5000242;28;19993;-66
2021/08/09 03:08:00;;;;;;;;;;;;;;;-144.99;88.17;52427.72;4996822;28;19997;-66
2021/08/09 03:10:27;;;;;;;;;;;;;;;-144.99;88.67;52435.88;4993978;28;19998;-66
2021/08/09 03:12:58;;;;;;;;;;;;;;;-144.99;88.67;52433.81;4994988;28;19989;-66
2021/08/09 03:15:25;;;;;;;;;;;;;;;-144.99;88.64;52393.06;4994920;28;19982;-65
2021/08/09 03:17:52;;;;;;;;;;;;;;;-144.99;88.96;52421.59;5004762;28;19982;-65
2021/08/09 03:20:19;;;;;;;;;;;;;;;-144.99;89.00;52435.88;4994695;28;20005;-65
2021/08/09 03:22:45;;;;;;;;;;;;;;;-144.99;89.15;52417.53;4994185;28;19986;-65
2021/08/09 03:25:11;;;;;;;;;;;;;;;-144.99;89.28;52409.38;4994458;28;19988;-66
2021/08/09 03:27:37;;;;;;;;;;;;;;;-144.99;89.52;52421.59;4994344;28;19986;-66
2021/08/09 03:30:06;;;;;;;;;;;;;;;-144.99;89.56;52425.66;4993257;28;20001;-66
2021/08/09 03:32:32;;;;;;;;;;;;;;;-144.99;89.56;52441.97;5008061;28;20005;-67
2021/08/09 03:34:59;;;;;;;;;;;;;;;-144.99;89.73;52429.75;4994151;28;19986;-70
2021/08/09 03:37:25;;;;;;;;;;;;;;;-144.99;89.91;52448.09;4994117;28;19978;-66
2021/08/09 03:39:51;;;;;;;;;;;;;;;-144.99;90.21;52415.47;4994024;28;19998;-67
2021/08/09 03:42:19;;;;;;;;;;;;;;;-144.99;90.07;52417.53;4994224;28;20005;-66
2021/08/09 03:44:46;;;;;;;;;;;;;;;-144.99;90.32;52423.63;4994148;28;20001;-68
2021/08/09 03:47:14;;;;;;;;;;;;;;;-144.99;90.28;52423.63;4994028;28;20126;-67
2021/08/09 03:49:40;;;;;;;;;;;;;;;-144.99;90.64;52421.59;4993138;28;20002;-67
2021/08/09 03:52:06;;;;;;;;;;;;;;;-144.99;90.79;52427.72;4993573;28;20005;-68
2021/08/09 03:54:33;;;;;;;;;;;;;;;-144.99;90.81;52435.88;4993718;28;19982;-68
2021/08/09 03:56:59;;;;;;;;;;;;;;;-144.99;90.88;52456.25;4998757;28;19982;-69
2021/08/09 03:59:25;;;;;;;;;;;;;;;-144.99;91.04;52374.72;4992812;28;20005;-68
2021/08/09 04:01:52;;;;;;;;;;;;;;;-144.99;91.11;52427.72;4998703;28;19957;-68
2021/08/09 04:04:19;;;;;;;;;;;;;;;-144.99;91.12;52409.38;4996714;28;19978;-68
2021/08/09 04:06:46;;;;;;;;;;;;;;;-144.99;91.49;52399.19;5000935;28;19981;-68
2021/08/09 04:09:12;;;;;;;;;;;;;;;-144.99;91.44;52415.47;4998880;28;19998;-69
2021/08/09 04:11:38;;;;;;;;;;;;;;;-144.99;91.69;52427.72;4992737;28;19990;-68
2021/08/09 04:14:05;;;;;;;;;;;;;;;-144.99;91.62;52395.09;4992643;28;20482;-68
2021/08/09 04:16:31;;;;;;;;;;;;;;;-144.99;91.74;52378.78;4992520;28;20009;-68
2021/08/09 04:18:57;;;;;;;;;;;;;;;-144.99;92.05;52415.47;5005509;28;20051;-69
2021/08/09 04:21:25;;;;;;;;;;;;;;;-144.99;91.93;52421.59;4992075;28;19985;-70
2021/08/09 04:23:53;;;;;;;;;;;;;;;-144.99;91.64;52444.03;4992231;28;19986;-69
2021/08/09 04:26:19;;;;;;;;;;;;;;;-144.99;91.74;52444.03;4992689;28;19998;-70
2021/08/09 04:28:46;;;;;;;;;;;;;;;-144.99;92.01;52386.94;4992135;28;20116;-69
2021/08/09 04:31:12;;;;;;;;;;;;;;;-144.99;91.89;52435.88;5000340;28;20371;-69
2021/08/09 04:33:42;;;;;;;;;;;;;;;-144.99;92.15;52446.06;4995981;28;19979;-69
2021/08/09 04:36:08;;;;;;;;;;;;;;;-144.99;91.95;52380.84;4991991;28;20005;-68
2021/08/09 04:38:36;;;;;;;;;;;;;;;-144.99;92.05;52421.59;4992420;28;20017;-69
2021/08/09 04:41:04;;;;;;;;;;;;;;;-144.99;91.98;52435.88;4992012;28;19990;-69
2021/08/09 04:43:30;;;;;;;;;;;;;;;-144.99;92.00;52409.38;4992407;28;19982;-68
2021/08/09 04:45:56;;;;;;;;;;;;;;;-144.99;92.05;52411.41;4992108;28;19982;-68
2021/08/09 04:48:23;;;;;;;;;;;;;;;-144.99;91.61;52386.94;4992312;28;20005;-68
2021/08/09 04:50:49;;;;;;;;;;;;;;;-144.99;91.82;52403.25;4991830;28;20337;-68
2021/08/09 04:53:15;;;;;;;;;;;;;;;-144.99;91.67;52397.13;4991803;28;19986;-69
2021/08/09 04:55:43;;;;;;;;;;;;;;;-144.99;91.54;52407.31;4997567;28;19978;-69
2021/08/09 04:58:09;;;;;;;;;;;;;;;-144.99;91.18;52399.19;4993157;28;19985;-69
2021/08/09 05:00:36;;;;;;;;;;;;;;;-144.99;91.23;52407.31;4992064;28;19982;-68
2021/08/09 05:03:02;;;;;;;;;;;;;;;-144.99;91.19;52407.31;5004465;28;19982;-69
2021/08/09 05:05:28;;;;;;;;;;;;;;;-144.99;91.19;52421.59;5001042;28;19988;-68
2021/08/09 05:07:55;;;;;;;;;;;;;;;-144.99;91.17;52423.63;5001803;28;20462;-70
2021/08/09 05:10:21;;;;;;;;;;;;;;;-144.99;90.83;52407.31;4995830;28;20089;-69
2021/08/09 05:12:49;;;;;;;;;;;;;;;-144.99;90.93;52391.03;4992102;28;19984;-68
2021/08/09 05:15:16;;;;;;;;;;;;;;;-144.99;90.48;52415.47;4992458;28;19988;-68
2021/08/09 05:17:42;;;;;;;;;;;;;;;-144.99;90.40;52391.03;5002257;28;19978;-68
2021/08/09 05:20:09;;;;;;;;;;;;;;;-144.99;90.17;52376.75;4995654;28;20085;-68
2021/08/09 05:22:35;;;;;;;;;;;;;;;-144.99;90.03;52413.44;4991688;28;20005;-69
2021/08/09 05:25:03;;;;;;;;;;;;;;;-144.99;89.88;52366.56;4992019;28;19993;-69
2021/08/09 05:27:29;;;;;;;;;;;;;;;-144.99;89.18;52413.44;4991570;28;20061;-69
2021/08/09 05:29:57;;;;;;;;;;;;;;;-144.99;89.11;52419.56;4984359;28;19998;-70
2021/08/09 05:32:23;;;;;;;;;;;;;;;-144.99;88.98;52407.31;4990808;28;19978;-67
2021/08/09 05:34:50;;;;;;;;;;;;;;;-144.99;88.94;52382.88;4993084;28;19989;-67
2021/08/09 05:37:16;;;;;;;;;;;;;;;-144.99;88.34;52382.88;4991224;28;19978;-69
2021/08/09 05:39:43;;;;;;;;;;;;;;;-144.99;87.97;52382.88;4991524;28;20372;-69
2021/08/09 05:42:09;;;;;;;;;;;;;;;-144.99;88.39;52417.53;4991571;28;19982;-69
2021/08/09 05:44:35;;;;;;;;;;;;;;;-144.99;87.74;52399.19;4991663;28;19988;-69
2021/08/09 05:47:03;;;;;;;;;;;;;;;-144.99;87.83;52427.72;4990537;28;19986;-68
2021/08/09 05:49:30;;;;;;;;;;;;;;;-144.99;87.85;52393.06;4990365;28;20006;-68
2021/08/09 05:51:56;;;;;;;;;;;;;;;-144.99;87.46;52395.09;4990804;28;19982;-68
2021/08/09 05:54:22;;;;;;;;;;;;;;;-144.99;87.41;52403.25;4991034;28;19982;-71
2021/08/09 05:56:48;;;;;;;;;;;;;;;-144.99;86.93;52435.88;4991439;28;19982;-70
2021/08/09 05:59:15;;;;;;;;;;;;;;;-144.99;86.62;52370.63;4990610;28;20004;-71
2021/08/09 06:01:41;;;;;;;;;;;;;;;-144.99;86.58;52391.03;4994609;28;20255;-70
2021/08/09 06:04:09;;;;;;;;;;;;;;;-144.99;86.28;52374.72;5000938;28;20001;-68
2021/08/09 06:06:35;;;;;;;;;;;;;;;-144.99;85.89;52358.41;4998842;28;19973;-69
2021/08/09 06:09:01;;;;;;;;;;;;;;;-144.99;85.75;52374.72;5000470;28;20002;-69
2021/08/09 06:11:28;;;;;;;;;;;;;;;-144.99;85.65;52393.06;4991331;28;20321;-68
2021/08/09 06:13:54;;;;;;;;;;;;;;;-144.99;85.26;52399.19;4990848;28;20399;-68
2021/08/09 06:16:20;;;;;;;;;;;;;;;-144.99;84.42;52370.63;4990904;28;20350;-68
2021/08/09 06:18:47;;;;;;;;;;;;;;;-144.99;84.17;52393.06;5003035;28;19998;-68
2021/08/09 06:21:14;;;;;;;;;;;;;;;-144.99;83.98;52372.69;4991254;28;19984;-68
2021/08/09 06:23:41;;;;;;;;;;;;;;;-144.99;83.57;52366.56;4991020;28;20019;-69
2021/08/09 06:26:07;;;;;;;;;;;;;;;-144.99;83.24;52378.78;4991419;28;19989;-69
2021/08/09 06:28:34;;;;;;;;;;;;;;;-144.99;83.10;52374.72;4990216;28;20002;-69
2021/08/09 06:31:01;;;;;;;;;;;;;;;-144.99;82.45;52382.88;4996343;28;19978;-70
2021/08/09 06:33:27;;;;;;;;;;;;;;;-144.99;82.55;52342.09;4992058;28;20428;-70
2021/08/09 06:35:53;;;;;;;;;;;;;;;-144.99;81.93;52356.38;4985057;28;20000;-69
2021/08/09 06:38:21;;;;;;;;;;;;;;;-144.99;81.67;52378.78;4990418;28;19981;-70
2021/08/09 06:40:47;;;;;;;;;;;;;;;-144.99;81.66;52372.69;4977490;28;19983;-69
2021/08/09 06:43:14;;;;;;;;;;;;;;;-144.99;81.22;52358.41;4990553;28;19988;-70
2021/08/09 06:45:41;;;;;;;;;;;;;;;-144.99;80.57;52338.03;4989855;28;19989;-70
2021/08/09 06:48:07;;;;;;;;;;;;;;;-144.99;80.17;52342.09;4982697;28;19988;-70
2021/08/09 06:50:33;;;;;;;;;;;;;;;-144.99;80.20;52333.94;4981063;28;20411;-71
2021/08/09 06:53:00;;;;;;;;;;;;;;;-144.99;79.83;52329.88;4993802;28;20350;-69
2021/08/09 06:55:28;;;;;;;;;;;;;;;-144.99;79.68;52362.50;4999631;28;20290;-67
2021/08/09 06:57:55;;;;;;;;;;;;;;;-144.99;79.68;52350.25;4994747;28;20356;-64
2021/08/09 07:00:21;;;;;;;;;;;;;;;-144.99;79.23;52342.09;4994374;28;20006;-65
2021/08/09 07:02:48;;;;;;;;;;;;;;;-144.99;79.46;52321.72;5005129;28;19978;-65
2021/08/09 07:05:14;;;;;;;;;;;;;;;-144.99;79.30;52370.63;4997141;28;19978;-68
2021/08/09 07:07:42;;;;;;;;;;;;;;;-144.99;79.56;52346.19;5002315;28;19978;-68
2021/08/09 07:10:09;;;;;;;;;;;;;;;-144.99;79.48;52356.38;4997555;28;20440;-68
2021/08/09 07:12:37;;;;;;;;;;;;;;;-144.99;79.75;52360.44;4994073;28;20387;-67
2021/08/09 07:15:04;;;;;;;;;;;;;;;-144.99;79.88;52342.09;4994031;28;19989;-67
2021/08/09 07:17:30;;;;;;;;;;;;;;;-144.99;79.57;52309.50;5000735;28;20439;-67
2021/08/09 07:19:56;;;;;;;;;;;;;;;-144.99;79.24;52333.94;4998093;28;20013;-68
2021/08/09 07:22:23;;;;;;;;;;;;;;;-144.99;79.03;52350.25;4993123;28;20452;-68
2021/08/09 07:24:49;;;;;;;;;;;;;;;-144.99;79.17;52358.41;4993420;28;20474;-68
2021/08/09 07:27:15;;;;;;;;;;;;;;;-144.99;77.85;52325.81;4993672;28;20375;-68
2021/08/09 07:29:43;;;;;;;;;;;;;;;-144.99;77.15;52338.03;4994419;28;20001;-68
2021/08/09 07:32:09;;;;;;;;;;;;;;;-144.99;77.01;52344.16;5000915;28;20368;-68
2021/08/09 07:34:36;;;;;;;;;;;;;;;-144.99;77.56;52333.94;4993657;28;20318;-69
2021/08/09 07:37:02;;;;;;;;;;;;;;;-144.99;77.44;52338.03;4992818;28;20443;-68
2021/08/09 07:39:35;;;;;;;;;;;;;;;-144.99;78.06;52329.88;4993259;28;19997;-69
2021/08/09 07:42:01;;;;;;;;;;;;;;;-144.99;76.77;52329.88;4993576;28;19982;-68
2021/08/09 07:44:28;;;;;;;;;;;;;;;-144.99;77.23;52338.03;5011074;22;20333;-61
2021/08/09 07:46:55;;;;;;;;;;;;;;;-144.99;77.88;52350.25;5031833;28;20214;-62
2021/08/09 07:49:22;;;;;;;;;;;;;;;-144.99;78.03;52350.25;5031842;28;20020;-62
2021/08/09 07:51:48;;;;;;;;;;;;;;;-144.99;78.34;52329.88;5029884;28;20465;-62
2021/08/09 07:54:15;;;;;;;;;;;;;;;-144.99;77.33;52329.88;5031756;28;20133;-62
2021/08/09 07:56:41;;;;;;;;;;;;;;;-144.99;77.03;52331.91;5038631;28;19977;-62
2021/08/09 07:59:07;;;;;;;;;;;;;;;-144.99;76.94;52362.50;5031575;28;20354;-62
2021/08/09 08:01:34;;;;;;;;;;;;;;;-144.99;77.65;52338.03;5021641;28;19989;-62
2021/08/09 08:04:01;;;;;;;;;;;;;;;-144.99;77.94;52350.25;5029460;28;20358;-61
2021/08/09 08:06:28;;;;;;;;;;;;;;;-144.99;78.08;52313.56;5046148;28;19981;-62
2021/08/09 08:08:54;;;;;;;;;;;;;;;-144.99;77.80;52364.53;5040801;28;20005;-62
2021/08/09 08:11:20;;;;;;;;;;;;;;;-144.99;77.84;52358.41;5028007;28;19974;-62
2021/08/09 08:13:47;;;;;;;;;;;;;;;-144.99;78.29;52342.09;5031509;28;19978;-62
2021/08/09 08:16:13;;;;;;;;;;;;;;;-144.99;77.50;52342.09;5031517;28;19989;-61
2021/08/09 08:18:39;;;;;;;;;;;;;;;-144.99;77.84;52321.72;5042895;28;20016;-63
2021/08/09 08:21:07;;;;;;;;;;;;;;;-144.99;77.44;52346.19;5018415;28;19977;-60
2021/08/09 08:23:34;;;;;;;;;;;;;;;-144.99;76.82;52321.72;5030751;28;20077;-62
2021/08/09 08:26:00;;;;;;;;;;;;;;;-144.99;76.95;52346.19;5030642;28;19977;-60
2021/08/09 08:28:26;;;;;;;;;;;;;;;-144.99;77.00;52305.41;5031089;28;19997;-61
2021/08/09 08:30:53;;;;;;;;;;;;;;;-144.99;76.26;52340.06;5033960;28;19997;-62
2021/08/09 08:33:19;;;;;;;;;;;;;;;-144.99;77.10;52325.81;5039608;28;19976;-63
2021/08/09 08:35:46;;;;;;;;;;;;;;;-144.99;76.00;52321.72;5030231;28;20466;-64
2021/08/09 08:38:14;;;;;;;;;;;;;;;-144.99;75.21;52309.50;5039340;28;19977;-63
2021/08/09 08:40:46;;;;;;;;;;;;;;;-144.99;75.66;52317.66;5035948;28;19965;-63
2021/08/09 08:43:18;;;;;;;;;;;;;;;-144.99;75.62;52289.13;5031843;28;19987;-63
2021/08/09 08:45:45;;;;;;;;;;;;;;;-144.99;74.96;52319.69;5030463;28;19985;-63
2021/08/09 08:48:11;;;;;;;;;;;;;;;-144.99;73.98;52315.59;5030684;28;20159;-63
2021/08/09 08:50:37;;;;;;;;;;;;;;;-144.99;74.01;52268.72;5030296;28;19996;-63
2021/08/09 08:53:04;;;;;;;;;;;;;;;-144.99;72.34;52272.81;5030016;28;20060;-62
2021/08/09 08:55:32;;;;;;;;;;;;;;;-144.99;71.15;52289.13;5031218;28;20462;-62
2021/08/09 08:57:58;;;;;;;;;;;;;;;-144.99;70.95;52268.72;5030433;28;20332;-61
2021/08/09 09:00:24;;;;;;;;;;;;;;;-144.99;69.94;52289.13;5030310;28;20004;-62
2021/08/09 09:02:51;;;;;;;;;;;;;;;-144.99;70.34;52305.41;5026278;28;20024;-60
2021/08/09 09:05:18;;;;;;;;;;;;;;;-144.99;69.42;52297.25;5038386;28;20178;-60
2021/08/09 09:07:46;;;;;;;;;;;;;;;-144.99;68.58;52297.25;5031647;28;19980;-61
2021/08/09 09:10:13;;;;;;;;;;;;;;;-144.99;68.53;52305.41;5029151;28;20000;-60
2021/08/09 09:12:41;;;;;;;;;;;;;;;-144.99;69.09;52305.41;5027164;28;19980;-60
2021/08/09 09:15:08;;;;;;;;;;;;;;;-144.99;68.84;52305.41;5030524;28;19968;-70
2021/08/09 09:17:35;;;;;;;;;;;;;;;-144.99;69.47;52321.72;5034400;28;19972;-67
2021/08/09 09:20:21;;;;;;;;;;;;;;;-144.99;69.60;52329.88;5029976;28;19995;-67
2021/08/09 09:22:47;;;;;;;;;;;;;;;-144.99;70.70;52293.19;5028333;28;19979;-67
2021/08/09 09:25:14;;;;;;;;;;;;;;;-144.99;70.23;52293.19;5040995;28;20232;-67
2021/08/09 09:27:41;;;;;;;;;;;;;;;-144.99;69.70;52313.56;5030309;28;19978;-68
2021/08/09 09:30:23;;;;;;;;;;;;;;;-144.99;69.19;52289.13;5016742;28;19995;-66
2021/08/09 09:32:57;;;;;;;;;;;;;;;-144.99;67.93;52293.19;5031628;28;19979;-67
2021/08/09 09:35:24;;;;;;;;;;;;;;;-144.99;68.55;52256.50;5030200;28;19929;-67
2021/08/09 09:37:51;;;;;;;;;;;;;;;-144.99;65.28;52244.28;5029629;28;19977;-66
2021/08/09 09:40:20;;;;;;;;;;;;;;;-144.99;66.41;52252.44;5029784;28;19993;-68
2021/08/09 09:42:48;;;;;;;;;;;;;;;-144.99;66.36;52258.53;5029801;28;20086;-67
2021/08/09 09:45:19;;;;;;;;;;;;;;;-144.99;66.05;52285.03;5030265;28;20040;-67
2021/08/09 09:47:45;;;;;;;;;;;;;;;-144.99;64.80;52223.88;5029753;28;20293;-67
2021/08/09 09:50:23;;;;;;;;;;;;;;;-144.99;65.75;52268.72;5029413;28;20036;-69
2021/08/09 09:52:49;;;;;;;;;;;;;;;-144.99;63.10;52244.28;5017647;28;19965;-67
2021/08/09 09:55:16;;;;;;;;;;;;;;;-144.99;63.46;52280.97;5034549;28;19949;-68
2021/08/09 09:57:43;;;;;;;;;;;;;;;-144.99;62.80;52276.88;5029528;28;19960;-67
2021/08/09 10:00:13;;;;;;;;;;;;;;;-144.99;64.29;52268.72;5029588;28;19969;-68
2021/08/09 10:02:39;;;;;;;;;;;;;;;-144.99;63.35;52260.56;5039198;28;19956;-67
2021/08/09 10:05:06;;;;;;;;;;;;;;;-144.99;63.03;52276.88;5040400;28;20038;-67
2021/08/09 10:07:34;;;;;;;;;;;;;;;-144.99;62.99;52223.88;5032538;28;20471;-69
2021/08/09 10:10:01;;;;;;;;;;;;;;;-144.99;61.13;52260.56;5035525;28;19971;-68
2021/08/09 10:12:29;;;;;;;;;;;;;;;-144.99;62.41;52248.34;5028981;28;19966;-68
2021/08/09 10:14:56;;;;;;;;;;;;;;;-144.99;61.95;52309.50;5029253;28;19977;-67
2021/08/09 10:17:24;;;;;;;;;;;;;;;-144.99;61.63;52305.41;5041970;28;19946;-68
2021/08/09 10:19:51;;;;;;;;;;;;;;;-144.99;62.31;52285.03;5033988;28;19978;-67
2021/08/09 10:22:19;;;;;;;;;;;;;;;-144.99;62.72;52313.56;5028807;28;19961;-67
2021/08/09 10:24:46;;;;;;;;;;;;;;;-144.99;62.36;52313.56;5028834;28;20023;-67
2021/08/09 10:27:12;;;;;;;;;;;;;;;-144.99;62.17;52309.50;5029050;28;19973;-68
2021/08/09 10:29:56;;;;;;;;;;;;;;;-144.99;62.54;52264.66;5027232;28;19977;-69
2021/08/09 10:32:24;;;;;;;;;;;;;;;-144.99;62.04;52305.41;5039524;28;19971;-67
2021/08/09 10:34:50;;;;;;;;;;;;;;;-144.99;62.36;52321.72;5029530;28;20518;-68
2021/08/09 10:37:19;;;;;;;;;;;;;;;-144.99;62.74;52313.56;5029422;28;20077;-68
2021/08/09 10:40:04;;;;;;;;;;;;;;;-144.99;61.30;52321.72;5025335;28;19994;-68
2021/08/09 10:42:36;;;;;;;;;;;;;;;-144.99;61.51;52317.66;5035101;28;19983;-67
2021/08/09 10:45:03;;;;;;;;;;;;;;;-144.99;60.55;52325.81;5029281;28;20466;-67
2021/08/09 10:47:51;;;;;;;;;;;;;;;-144.99;61.22;52305.41;5028585;28;20000;-68
2021/08/09 10:50:34;;;;;;;;;;;;;;;-144.99;61.14;52264.66;5028127;28;20136;-67
2021/08/09 10:53:00;;;;;;;;;;;;;;;-144.99;61.61;52256.50;5020443;28;19982;-67
2021/08/09 10:55:41;;;;;;;;;;;;;;;-144.99;61.81;52256.50;5040627;28;19970;-67
2021/08/09 10:58:08;;;;;;;;;;;;;;;-144.99;60.30;52232.03;5027166;28;20081;-68
2021/08/09 11:00:49;;;;;;;;;;;;;;;-144.99;59.29;52252.44;5038033;28;20069;-68
2021/08/09 11:03:20;;;;;;;;;;;;;;;-144.99;58.17;52211.66;5027172;28;19961;-68
2021/08/09 11:05:46;;;;;;;;;;;;;;;-144.99;57.10;52219.81;5029277;28;19990;-62
2021/08/09 11:08:29;;;;;;;;;;;;;;;-144.99;56.52;52260.56;5026372;28;20408;-62
2021/08/09 11:10:59;;;;;;;;;;;;;;;-144.99;56.59;52242.22;5036535;28;19993;-65
2021/08/09 11:13:26;;;;;;;;;;;;;;;-144.99;55.94;52276.88;5016808;28;19976;-62
2021/08/09 11:15:56;;;;;;;;;;;;;;;-144.99;57.55;52305.41;5028843;28;19968;-63
2021/08/09 11:18:24;;;;;;;;;;;;;;;-144.99;58.14;52287.06;5030320;28;20451;-64
2021/08/09 11:21:00;;;;;;;;;;;;;;;-144.99;58.82;52319.69;5042043;28;19932;-62
2021/08/09 11:23:27;;;;;;;;;;;;;;;-144.99;59.17;52268.72;5035673;28;20410;-63
2021/08/09 11:25:53;;;;;;;;;;;;;;;-144.99;59.33;52276.88;5029233;28;20062;-61
2021/08/09 11:28:22;;;;;;;;;;;;;;;-144.99;58.30;52285.03;5026766;28;19983;-69
2021/08/09 11:30:49;;;;;;;;;;;;;;;-144.99;58.22;52264.66;5026214;28;19991;-69
2021/08/09 11:33:25;;;;;;;;;;;;;;;-144.99;57.40;52264.66;5039301;28;19975;-67
2021/08/09 11:35:53;;;;;;;;;;;;;;;-144.99;57.84;52244.28;5034947;28;20057;-69
2021/08/09 11:38:19;;;;;;;;;;;;;;;-144.99;57.16;52264.66;5033444;28;20331;-69
2021/08/09 11:40:47;;;;;;;;;;;;;;;-144.99;56.34;52230.00;5031760;28;19979;-69
2021/08/09 11:43:14;;;;;;;;;;;;;;;-144.99;54.81;52170.91;5032133;28;20531;-68
2021/08/09 11:45:41;;;;;;;;;;;;;;;-144.99;53.99;52142.38;5031924;28;20023;-68
2021/08/09 11:48:08;;;;;;;;;;;;;;;-144.99;53.36;52117.91;5031828;28;19978;-68
2021/08/09 11:50:37;;;;;;;;;;;;;;;-144.99;52.89;52105.69;5032008;28;20093;-68
2021/08/09 11:53:04;;;;;;;;;;;;;;;-144.99;52.06;52121.97;5037726;28;19974;-68
2021/08/09 11:55:30;;;;;;;;;;;;;;;-144.99;51.79;52146.44;5035523;28;19971;-68
2021/08/09 11:57:57;;;;;;;;;;;;;;;-144.99;51.38;52252.44;4345068;28;10000842;-69
2021/08/09 12:00:25;;;;;;;;;;;;;;;-144.99;51.66;52199.44;5032217;28;19996;-68
2021/08/09 12:03:06;;;;;;;;;;;;;;;-144.99;52.59;52073.06;5019081;28;20506;-68
2021/08/09 12:05:33;;;;;;;;;;;;;;;-144.99;50.20;52121.97;5024624;28;20498;-69
2021/08/09 12:08:04;;;;;;;;;;;;;;;-144.99;50.69;52064.91;5021491;28;19963;-69
2021/08/09 12:10:30;;;;;;;;;;;;;;;-144.99;48.75;52187.19;5024209;28;20009;-69
2021/08/09 12:12:57;;;;;;;;;;;;;;;-144.99;49.35;52223.88;5024245;28;19978;-67
2021/08/09 12:15:23;;;;;;;;;;;;;;;-144.99;49.42;52207.59;5025326;28;20083;-69
2021/08/09 12:18:02;;;;;;;;;;;;;;;-144.99;48.85;52132.19;5024550;28;19999;-67
2021/08/09 12:20:28;;;;;;;;;;;;;;;-144.99;49.75;52146.44;5023796;28;20378;-69
2021/08/09 12:22:55;;;;;;;;;;;;;;;-144.99;49.54;52215.75;5024622;28;20516;-66
2021/08/09 12:25:34;;;;;;;;;;;;;;;-144.99;50.49;52244.28;5022887;28;19979;-67
2021/08/09 12:28:01;;;;;;;;;;;;;;;-144.99;49.26;52195.34;5024781;28;20065;-68
2021/08/09 12:30:27;;;;;;;;;;;;;;;-144.99;49.71;52240.19;5021921;28;20368;-66